sensor_id;sensor_type;location;lat;lon;timestamp;temperature;humidity
1005;DHT22;491;53.480;10.174;2022-07-22T00:02:21;19.00;99.90
1005;DHT22;491;53.480;10.174;2022-07-22T00:04:47;19.00;99.90
1005;DHT22;491;53.480;10.174;2022-07-22T00:07:13;18.90;99.90
1005;DHT22;491;53.480;10.174;2022-07-22T00:09:39;18.90;99.90
1005;DHT22;491;53.480;10.174;2022-07-22T00:12:05;18.90;99.90
1005;DHT22;491;53.480;10.174;2022-07-22T00:14:30;18.90;99.90
1005;DHT22;491;53.480;10.174;2022-07-22T00:16:56;18.90;99.90
1005;DHT22;491;53.480;10.174;2022-07-22T00:19:22;18.90;99.90
1005;DHT22;491;53.480;10.174;2022-07-22T00:21:50;18.90;99.90
1005;DHT22;491;53.480;10.174;2022-07-22T00:24:15;18.90;99.90
1005;DHT22;491;53.480;10.174;2022-07-22T00:26:41;18.90;99.90
1005;DHT22;491;53.480;10.174;2022-07-22T00:29:06;18.90;99.90
1005;DHT22;491;53.480;10.174;2022-07-22T00:31:32;18.90;99.90
1005;DHT22;491;53.480;10.174;2022-07-22T00:33:59;18.90;99.90
1005;DHT22;491;53.480;10.174;2022-07-22T00:36:26;18.90;99.90
1005;DHT22;491;53.480;10.174;2022-07-22T00:38:52;18.90;99.90
1005;DHT22;491;53.480;10.174;2022-07-22T00:41:18;18.90;99.90
1005;DHT22;491;53.480;10.174;2022-07-22T00:46:18;19.00;99.90
1005;DHT22;491;53.480;10.174;2022-07-22T00:48:44;18.90;99.90
1005;DHT22;491;53.480;10.174;2022-07-22T00:51:09;18.90;99.90
1005;DHT22;491;53.480;10.174;2022-07-22T00:53:35;18.90;99.90
1005;DHT22;491;53.480;10.174;2022-07-22T00:56:02;18.90;99.90
1005;DHT22;491;53.480;10.174;2022-07-22T00:58:28;18.90;99.90
1005;DHT22;491;53.480;10.174;2022-07-22T01:00:54;18.80;99.90
1005;DHT22;491;53.480;10.174;2022-07-22T01:03:19;18.70;99.90
1005;DHT22;491;53.480;10.174;2022-07-22T01:05:45;18.50;99.90
1005;DHT22;491;53.480;10.174;2022-07-22T01:08:10;18.40;99.90
1005;DHT22;491;53.480;10.174;2022-07-22T01:10:36;18.50;99.90
1005;DHT22;491;53.480;10.174;2022-07-22T01:13:01;18.30;99.90
1005;DHT22;491;53.480;10.174;2022-07-22T01:15:27;18.30;99.90
1005;DHT22;491;53.480;10.174;2022-07-22T01:17:52;18.30;99.90
1005;DHT22;491;53.480;10.174;2022-07-22T01:20:18;18.40;99.90
1005;DHT22;491;53.480;10.174;2022-07-22T01:22:43;18.30;99.90
1005;DHT22;491;53.480;10.174;2022-07-22T01:25:10;18.20;99.90
1005;DHT22;491;53.480;10.174;2022-07-22T01:27:36;18.20;99.90
1005;DHT22;491;53.480;10.174;2022-07-22T01:30:03;18.10;99.90
1005;DHT22;491;53.480;10.174;2022-07-22T01:32:29;18.00;99.90
1005;DHT22;491;53.480;10.174;2022-07-22T01:34:55;18.00;99.90
1005;DHT22;491;53.480;10.174;2022-07-22T01:37:20;17.90;99.90
1005;DHT22;491;53.480;10.174;2022-07-22T01:39:46;17.90;99.90
1005;DHT22;491;53.480;10.174;2022-07-22T01:42:11;18.00;99.90
1005;DHT22;491;53.480;10.174;2022-07-22T01:44:37;18.00;99.90
1005;DHT22;491;53.480;10.174;2022-07-22T01:47:02;17.80;99.90
1005;DHT22;491;53.480;10.174;2022-07-22T01:49:28;17.80;99.90
1005;DHT22;491;53.480;10.174;2022-07-22T01:51:54;17.70;99.90
1005;DHT22;491;53.480;10.174;2022-07-22T01:54:25;17.50;99.90
1005;DHT22;491;53.480;10.174;2022-07-22T01:56:51;17.50;99.90
1005;DHT22;491;53.480;10.174;2022-07-22T01:59:16;17.50;99.90
1005;DHT22;491;53.480;10.174;2022-07-22T02:01:42;17.50;99.90
1005;DHT22;491;53.480;10.174;2022-07-22T02:04:07;17.50;99.90
1005;DHT22;491;53.480;10.174;2022-07-22T02:06:33;17.40;99.90
1005;DHT22;491;53.480;10.174;2022-07-22T02:08:58;17.30;99.90
1005;DHT22;491;53.480;10.174;2022-07-22T02:11:24;17.20;99.90
1005;DHT22;491;53.480;10.174;2022-07-22T02:13:49;17.20;99.90
1005;DHT22;491;53.480;10.174;2022-07-22T02:16:15;17.20;99.90
1005;DHT22;491;53.480;10.174;2022-07-22T02:18:41;17.20;99.90
1005;DHT22;491;53.480;10.174;2022-07-22T02:21:06;17.10;99.90
1005;DHT22;491;53.480;10.174;2022-07-22T02:23:32;17.00;99.90
1005;DHT22;491;53.480;10.174;2022-07-22T02:25:57;17.00;99.90
1005;DHT22;491;53.480;10.174;2022-07-22T02:28:23;17.00;99.90
1005;DHT22;491;53.480;10.174;2022-07-22T02:30:48;16.90;99.90
1005;DHT22;491;53.480;10.174;2022-07-22T02:33:14;16.90;99.90
1005;DHT22;491;53.480;10.174;2022-07-22T02:35:40;16.90;99.90
1005;DHT22;491;53.480;10.174;2022-07-22T02:38:07;16.90;99.90
1005;DHT22;491;53.480;10.174;2022-07-22T02:40:32;16.90;99.90
1005;DHT22;491;53.480;10.174;2022-07-22T02:42:58;16.90;99.90
1005;DHT22;491;53.480;10.174;2022-07-22T02:45:24;16.80;99.90
1005;DHT22;491;53.480;10.174;2022-07-22T02:47:52;16.80;99.90
1005;DHT22;491;53.480;10.174;2022-07-22T02:50:18;16.80;99.90
1005;DHT22;491;53.480;10.174;2022-07-22T02:52:44;16.80;99.90
1005;DHT22;491;53.480;10.174;2022-07-22T02:55:09;16.80;99.90
1005;DHT22;491;53.480;10.174;2022-07-22T02:57:35;16.80;99.90
1005;DHT22;491;53.480;10.174;2022-07-22T03:00:01;16.80;99.90
1005;DHT22;491;53.480;10.174;2022-07-22T03:02:26;16.80;99.90
1005;DHT22;491;53.480;10.174;2022-07-22T03:04:52;16.80;99.90
1005;DHT22;491;53.480;10.174;2022-07-22T03:07:17;16.80;99.90
1005;DHT22;491;53.480;10.174;2022-07-22T03:09:43;16.80;99.90
1005;DHT22;491;53.480;10.174;2022-07-22T03:12:10;16.70;99.90
1005;DHT22;491;53.480;10.174;2022-07-22T03:14:35;16.80;99.90
1005;DHT22;491;53.480;10.174;2022-07-22T03:17:01;16.80;99.90
1005;DHT22;491;53.480;10.174;2022-07-22T03:19:26;16.70;99.90
1005;DHT22;491;53.480;10.174;2022-07-22T03:21:52;16.70;99.90
1005;DHT22;491;53.480;10.174;2022-07-22T03:24:17;16.70;99.90
1005;DHT22;491;53.480;10.174;2022-07-22T03:26:43;16.70;99.90
1005;DHT22;491;53.480;10.174;2022-07-22T03:29:08;16.70;99.90
1005;DHT22;491;53.480;10.174;2022-07-22T03:31:34;16.60;99.90
1005;DHT22;491;53.480;10.174;2022-07-22T03:33:59;16.60;99.90
1005;DHT22;491;53.480;10.174;2022-07-22T03:36:27;16.70;99.90
1005;DHT22;491;53.480;10.174;2022-07-22T03:38:54;16.70;99.90
1005;DHT22;491;53.480;10.174;2022-07-22T03:41:19;16.60;99.90
1005;DHT22;491;53.480;10.174;2022-07-22T03:43:45;16.50;99.90
1005;DHT22;491;53.480;10.174;2022-07-22T03:46:10;16.60;99.90
1005;DHT22;491;53.480;10.174;2022-07-22T03:48:36;16.60;99.90
1005;DHT22;491;53.480;10.174;2022-07-22T03:51:01;16.60;99.90
1005;DHT22;491;53.480;10.174;2022-07-22T03:53:27;16.60;99.90
1005;DHT22;491;53.480;10.174;2022-07-22T03:55:52;16.60;99.90
1005;DHT22;491;53.480;10.174;2022-07-22T03:58:18;16.60;99.90
1005;DHT22;491;53.480;10.174;2022-07-22T04:00:44;16.60;99.90
1005;DHT22;491;53.480;10.174;2022-07-22T04:03:10;16.70;99.90
1005;DHT22;491;53.480;10.174;2022-07-22T04:05:35;16.70;99.90
1005;DHT22;491;53.480;10.174;2022-07-22T04:08:01;16.70;99.90
1005;DHT22;491;53.480;10.174;2022-07-22T04:10:26;16.60;99.90
1005;DHT22;491;53.480;10.174;2022-07-22T04:12:51;16.70;99.90
1005;DHT22;491;53.480;10.174;2022-07-22T04:15:17;16.70;99.90
1005;DHT22;491;53.480;10.174;2022-07-22T04:17:42;16.70;99.90
1005;DHT22;491;53.480;10.174;2022-07-22T04:20:08;16.70;99.90
1005;DHT22;491;53.480;10.174;2022-07-22T04:22:34;16.70;99.90
1005;DHT22;491;53.480;10.174;2022-07-22T04:25:00;16.70;99.90
1005;DHT22;491;53.480;10.174;2022-07-22T04:27:25;16.60;99.90
1005;DHT22;491;53.480;10.174;2022-07-22T04:29:52;16.60;99.90
1005;DHT22;491;53.480;10.174;2022-07-22T04:32:18;16.60;99.90
1005;DHT22;491;53.480;10.174;2022-07-22T04:34:43;16.50;99.90
1005;DHT22;491;53.480;10.174;2022-07-22T04:37:09;16.50;99.90
1005;DHT22;491;53.480;10.174;2022-07-22T04:39:34;16.40;99.90
1005;DHT22;491;53.480;10.174;2022-07-22T04:42:00;16.40;99.90
1005;DHT22;491;53.480;10.174;2022-07-22T04:44:25;16.40;99.90
1005;DHT22;491;53.480;10.174;2022-07-22T04:46:51;16.30;99.90
1005;DHT22;491;53.480;10.174;2022-07-22T04:49:16;16.40;99.90
1005;DHT22;491;53.480;10.174;2022-07-22T04:51:42;16.40;99.90
1005;DHT22;491;53.480;10.174;2022-07-22T04:54:07;16.20;99.90
1005;DHT22;491;53.480;10.174;2022-07-22T04:56:33;16.30;99.90
1005;DHT22;491;53.480;10.174;2022-07-22T04:58:58;16.20;99.90
1005;DHT22;491;53.480;10.174;2022-07-22T05:01:24;16.20;99.90
1005;DHT22;491;53.480;10.174;2022-07-22T05:03:49;16.20;99.90
1005;DHT22;491;53.480;10.174;2022-07-22T05:06:16;16.30;99.90
1005;DHT22;491;53.480;10.174;2022-07-22T05:08:41;16.30;99.90
1005;DHT22;491;53.480;10.174;2022-07-22T05:11:07;16.30;99.90
1005;DHT22;491;53.480;10.174;2022-07-22T05:13:32;16.20;99.90
1005;DHT22;491;53.480;10.174;2022-07-22T05:16:03;16.30;99.90
1005;DHT22;491;53.480;10.174;2022-07-22T05:18:29;16.30;99.90
1005;DHT22;491;53.480;10.174;2022-07-22T05:20:54;16.30;99.90
1005;DHT22;491;53.480;10.174;2022-07-22T05:23:20;16.30;99.90
1005;DHT22;491;53.480;10.174;2022-07-22T05:25:45;16.30;99.90
1005;DHT22;491;53.480;10.174;2022-07-22T05:28:11;16.30;99.90
1005;DHT22;491;53.480;10.174;2022-07-22T05:30:37;16.30;99.90
1005;DHT22;491;53.480;10.174;2022-07-22T05:33:02;16.30;99.90
1005;DHT22;491;53.480;10.174;2022-07-22T05:35:28;16.30;99.90
1005;DHT22;491;53.480;10.174;2022-07-22T05:37:53;16.30;99.90
1005;DHT22;491;53.480;10.174;2022-07-22T05:40:19;16.30;99.90
1005;DHT22;491;53.480;10.174;2022-07-22T05:42:44;16.30;99.90
1005;DHT22;491;53.480;10.174;2022-07-22T05:45:10;16.30;99.90
1005;DHT22;491;53.480;10.174;2022-07-22T05:47:35;16.20;99.90
1005;DHT22;491;53.480;10.174;2022-07-22T05:50:01;16.20;99.90
1005;DHT22;491;53.480;10.174;2022-07-22T05:52:26;16.20;99.90
1005;DHT22;491;53.480;10.174;2022-07-22T05:54:52;16.20;99.90
1005;DHT22;491;53.480;10.174;2022-07-22T05:57:17;16.20;99.90
1005;DHT22;491;53.480;10.174;2022-07-22T05:59:43;16.20;99.90
1005;DHT22;491;53.480;10.174;2022-07-22T06:02:08;16.20;99.90
1005;DHT22;491;53.480;10.174;2022-07-22T06:04:34;16.20;99.90
1005;DHT22;491;53.480;10.174;2022-07-22T06:06:59;16.20;99.90
1005;DHT22;491;53.480;10.174;2022-07-22T06:09:25;16.30;99.90
1005;DHT22;491;53.480;10.174;2022-07-22T06:11:50;16.40;99.90
1005;DHT22;491;53.480;10.174;2022-07-22T06:14:16;16.60;99.90
1005;DHT22;491;53.480;10.174;2022-07-22T06:16:41;16.60;99.90
1005;DHT22;491;53.480;10.174;2022-07-22T06:19:07;16.70;99.90
1005;DHT22;491;53.480;10.174;2022-07-22T06:21:32;16.70;99.90
1005;DHT22;491;53.480;10.174;2022-07-22T06:23:58;16.70;99.90
1005;DHT22;491;53.480;10.174;2022-07-22T06:26:23;16.80;99.90
1005;DHT22;491;53.480;10.174;2022-07-22T06:28:49;17.10;99.90
1005;DHT22;491;53.480;10.174;2022-07-22T06:31:14;17.70;99.90
1005;DHT22;491;53.480;10.174;2022-07-22T06:33:41;18.00;99.90
1005;DHT22;491;53.480;10.174;2022-07-22T06:36:07;17.90;99.90
1005;DHT22;491;53.480;10.174;2022-07-22T06:38:33;17.70;99.90
1005;DHT22;491;53.480;10.174;2022-07-22T06:40:58;17.80;99.90
1005;DHT22;491;53.480;10.174;2022-07-22T06:43:24;17.80;99.90
1005;DHT22;491;53.480;10.174;2022-07-22T06:45:49;17.70;99.90
1005;DHT22;491;53.480;10.174;2022-07-22T06:48:15;17.60;99.90
1005;DHT22;491;53.480;10.174;2022-07-22T06:50:41;17.60;99.90
1005;DHT22;491;53.480;10.174;2022-07-22T06:53:06;17.70;99.90
1005;DHT22;491;53.480;10.174;2022-07-22T06:55:32;18.20;99.90
1005;DHT22;491;53.480;10.174;2022-07-22T06:57:58;18.80;99.90
1005;DHT22;491;53.480;10.174;2022-07-22T07:00:23;19.50;99.90
1005;DHT22;491;53.480;10.174;2022-07-22T07:02:49;19.70;91.50
1005;DHT22;491;53.480;10.174;2022-07-22T07:05:15;19.60;99.90
1005;DHT22;491;53.480;10.174;2022-07-22T07:07:40;19.00;99.90
1005;DHT22;491;53.480;10.174;2022-07-22T07:10:06;18.70;99.90
1005;DHT22;491;53.480;10.174;2022-07-22T07:12:35;19.70;99.90
1005;DHT22;491;53.480;10.174;2022-07-22T07:15:00;19.60;55.80
1005;DHT22;491;53.480;10.174;2022-07-22T07:17:26;19.50;99.90
1005;DHT22;491;53.480;10.174;2022-07-22T07:19:51;19.70;99.90
1005;DHT22;491;53.480;10.174;2022-07-22T07:22:17;19.30;99.90
1005;DHT22;491;53.480;10.174;2022-07-22T07:24:42;19.00;99.90
1005;DHT22;491;53.480;10.174;2022-07-22T07:27:08;18.60;99.90
1005;DHT22;491;53.480;10.174;2022-07-22T07:29:33;18.40;99.90
1005;DHT22;491;53.480;10.174;2022-07-22T07:31:59;18.20;99.90
1005;DHT22;491;53.480;10.174;2022-07-22T07:34:24;18.20;99.90
1005;DHT22;491;53.480;10.174;2022-07-22T07:36:50;18.40;99.90
1005;DHT22;491;53.480;10.174;2022-07-22T07:39:16;18.80;99.90
1005;DHT22;491;53.480;10.174;2022-07-22T07:41:42;19.10;99.90
1005;DHT22;491;53.480;10.174;2022-07-22T07:44:07;19.40;99.90
1005;DHT22;491;53.480;10.174;2022-07-22T07:46:33;19.20;1.00
1005;DHT22;491;53.480;10.174;2022-07-22T07:48:58;19.10;65.00
1005;DHT22;491;53.480;10.174;2022-07-22T07:51:24;19.00;99.90
1005;DHT22;491;53.480;10.174;2022-07-22T07:53:49;18.80;99.00
1005;DHT22;491;53.480;10.174;2022-07-22T07:56:15;18.60;99.90
1005;DHT22;491;53.480;10.174;2022-07-22T07:58:41;18.40;99.90
1005;DHT22;491;53.480;10.174;2022-07-22T08:01:07;18.40;99.90
1005;DHT22;491;53.480;10.174;2022-07-22T08:03:32;18.30;99.90
1005;DHT22;491;53.480;10.174;2022-07-22T08:05:58;18.30;99.90
1005;DHT22;491;53.480;10.174;2022-07-22T08:08:25;18.30;99.90
1005;DHT22;491;53.480;10.174;2022-07-22T08:10:50;18.20;99.90
1005;DHT22;491;53.480;10.174;2022-07-22T08:13:16;18.20;99.90
1005;DHT22;491;53.480;10.174;2022-07-22T08:15:41;18.10;54.40
1005;DHT22;491;53.480;10.174;2022-07-22T08:18:07;18.20;99.90
1005;DHT22;491;53.480;10.174;2022-07-22T08:20:32;18.30;99.90
1005;DHT22;491;53.480;10.174;2022-07-22T08:22:58;18.30;99.90
1005;DHT22;491;53.480;10.174;2022-07-22T08:25:24;18.40;72.80
1005;DHT22;491;53.480;10.174;2022-07-22T08:27:49;18.40;24.00
1005;DHT22;491;53.480;10.174;2022-07-22T08:30:16;18.30;39.30
1005;DHT22;491;53.480;10.174;2022-07-22T08:32:42;18.50;1.00
1005;DHT22;491;53.480;10.174;2022-07-22T08:35:08;18.70;1.00
1005;DHT22;491;53.480;10.174;2022-07-22T08:37:34;18.70;1.00
1005;DHT22;491;53.480;10.174;2022-07-22T08:40:00;18.70;1.00
1005;DHT22;491;53.480;10.174;2022-07-22T08:42:26;18.80;1.00
1005;DHT22;491;53.480;10.174;2022-07-22T08:44:53;18.90;1.00
1005;DHT22;491;53.480;10.174;2022-07-22T08:47:23;19.10;1.00
1005;DHT22;491;53.480;10.174;2022-07-22T08:49:49;19.40;99.90
1005;DHT22;491;53.480;10.174;2022-07-22T08:52:15;19.50;1.00
1005;DHT22;491;53.480;10.174;2022-07-22T08:54:40;19.30;99.90
1005;DHT22;491;53.480;10.174;2022-07-22T08:57:06;19.00;1.00
1005;DHT22;491;53.480;10.174;2022-07-22T08:59:31;18.90;1.00
1005;DHT22;491;53.480;10.174;2022-07-22T09:02:08;18.80;1.00
1005;DHT22;491;53.480;10.174;2022-07-22T09:07:30;18.40;1.00
1005;DHT22;491;53.480;10.174;2022-07-22T09:09:57;18.40;1.00
1005;DHT22;491;53.480;10.174;2022-07-22T09:12:23;18.50;1.00
1005;DHT22;491;53.480;10.174;2022-07-22T09:14:51;18.50;1.00
1005;DHT22;491;53.480;10.174;2022-07-22T09:17:32;18.70;1.00
1005;DHT22;491;53.480;10.174;2022-07-22T09:20:01;19.00;1.00
1005;DHT22;491;53.480;10.174;2022-07-22T09:22:39;19.40;99.90
1005;DHT22;491;53.480;10.174;2022-07-22T09:27:50;20.20;99.90
1005;DHT22;491;53.480;10.174;2022-07-22T09:30:19;20.20;1.00
1005;DHT22;491;53.480;10.174;2022-07-22T09:32:45;20.40;1.00
1005;DHT22;491;53.480;10.174;2022-07-22T09:35:11;20.30;1.00
1005;DHT22;491;53.480;10.174;2022-07-22T09:38:08;20.10;1.00
1005;DHT22;491;53.480;10.174;2022-07-22T09:40:41;19.80;99.90
1005;DHT22;491;53.480;10.174;2022-07-22T09:43:12;19.40;1.00
1005;DHT22;491;53.480;10.174;2022-07-22T09:45:55;19.30;1.00
1005;DHT22;491;53.480;10.174;2022-07-22T09:48:24;19.10;99.90
1005;DHT22;491;53.480;10.174;2022-07-22T09:50:52;19.20;99.90
1005;DHT22;491;53.480;10.174;2022-07-22T09:53:20;19.30;1.00
1005;DHT22;491;53.480;10.174;2022-07-22T09:55:46;19.30;99.90
1005;DHT22;491;53.480;10.174;2022-07-22T09:58:12;19.20;1.00
1005;DHT22;491;53.480;10.174;2022-07-22T10:00:38;19.20;99.90
1005;DHT22;491;53.480;10.174;2022-07-22T10:03:06;19.30;1.00
1005;DHT22;491;53.480;10.174;2022-07-22T10:05:37;19.30;99.90
1005;DHT22;491;53.480;10.174;2022-07-22T10:08:04;19.10;99.90
1005;DHT22;491;53.480;10.174;2022-07-22T10:10:32;19.10;99.90
1005;DHT22;491;53.480;10.174;2022-07-22T10:12:59;19.30;72.80
1005;DHT22;491;53.480;10.174;2022-07-22T10:15:26;19.50;1.00
1005;DHT22;491;53.480;10.174;2022-07-22T10:17:55;19.80;1.00
1005;DHT22;491;53.480;10.174;2022-07-22T10:20:26;20.00;1.00
1005;DHT22;491;53.480;10.174;2022-07-22T10:22:55;20.30;1.00
1005;DHT22;491;53.480;10.174;2022-07-22T10:25:24;20.30;99.90
1005;DHT22;491;53.480;10.174;2022-07-22T10:30:35;21.10;1.00
1005;DHT22;491;53.480;10.174;2022-07-22T10:33:18;21.20;1.00
1005;DHT22;491;53.480;10.174;2022-07-22T10:38:23;21.40;7.60
1005;DHT22;491;53.480;10.174;2022-07-22T10:40:52;21.40;1.00
1005;DHT22;491;53.480;10.174;2022-07-22T10:43:22;21.20;1.00
1005;DHT22;491;53.480;10.174;2022-07-22T10:45:55;21.10;1.00
1005;DHT22;491;53.480;10.174;2022-07-22T10:51:07;21.40;1.00
1005;DHT22;491;53.480;10.174;2022-07-22T10:53:44;21.40;1.00
1005;DHT22;491;53.480;10.174;2022-07-22T10:56:19;21.10;1.00
1005;DHT22;491;53.480;10.174;2022-07-22T10:58:59;20.90;99.90
1005;DHT22;491;53.480;10.174;2022-07-22T11:01:32;20.70;99.90
1005;DHT22;491;53.480;10.174;2022-07-22T11:06:41;21.10;99.90
1005;DHT22;491;53.480;10.174;2022-07-22T11:09:11;21.30;1.00
1005;DHT22;491;53.480;10.174;2022-07-22T11:11:40;22.10;99.90
1005;DHT22;491;53.480;10.174;2022-07-22T11:14:20;21.90;99.90
1005;DHT22;491;53.480;10.174;2022-07-22T11:16:48;21.30;1.00
1005;DHT22;491;53.480;10.174;2022-07-22T11:19:14;21.30;1.00
1005;DHT22;491;53.480;10.174;2022-07-22T11:21:58;21.10;99.90
1005;DHT22;491;53.480;10.174;2022-07-22T11:24:24;21.40;1.00
1005;DHT22;491;53.480;10.174;2022-07-22T11:26:52;21.60;99.90
1005;DHT22;491;53.480;10.174;2022-07-22T11:29:28;21.80;99.90
1005;DHT22;491;53.480;10.174;2022-07-22T11:31:56;21.90;99.90
1005;DHT22;491;53.480;10.174;2022-07-22T11:34:22;21.50;99.90
1005;DHT22;491;53.480;10.174;2022-07-22T11:36:49;21.30;99.90
1005;DHT22;491;53.480;10.174;2022-07-22T11:39:19;21.20;99.90
1005;DHT22;491;53.480;10.174;2022-07-22T11:41:44;21.00;1.00
1005;DHT22;491;53.480;10.174;2022-07-22T11:44:10;21.00;1.00
1005;DHT22;491;53.480;10.174;2022-07-22T11:46:41;21.60;99.90
1005;DHT22;491;53.480;10.174;2022-07-22T11:49:12;22.10;99.90
1005;DHT22;491;53.480;10.174;2022-07-22T11:51:38;22.50;99.90
1005;DHT22;491;53.480;10.174;2022-07-22T11:54:04;23.30;99.90
1005;DHT22;491;53.480;10.174;2022-07-22T11:56:31;23.60;99.90
1005;DHT22;491;53.480;10.174;2022-07-22T11:58:57;23.60;54.30
1005;DHT22;491;53.480;10.174;2022-07-22T12:01:25;24.60;54.30
1005;DHT22;491;53.480;10.174;2022-07-22T12:03:53;24.80;41.70
1005;DHT22;491;53.480;10.174;2022-07-22T12:06:20;24.50;38.80
1005;DHT22;491;53.480;10.174;2022-07-22T12:08:48;25.80;27.80
1005;DHT22;491;53.480;10.174;2022-07-22T12:11:16;25.10;17.40
1005;DHT22;491;53.480;10.174;2022-07-22T12:13:47;25.20;12.10
1005;DHT22;491;53.480;10.174;2022-07-22T12:16:18;24.80;10.40
1005;DHT22;491;53.480;10.174;2022-07-22T12:18:44;23.70;15.10
1005;DHT22;491;53.480;10.174;2022-07-22T12:21:15;23.50;34.90
1005;DHT22;491;53.480;10.174;2022-07-22T12:23:49;23.30;59.60
1005;DHT22;491;53.480;10.174;2022-07-22T12:26:19;23.50;95.80
1005;DHT22;491;53.480;10.174;2022-07-22T12:28:44;23.40;99.90
1005;DHT22;491;53.480;10.174;2022-07-22T12:31:10;23.10;99.90
1005;DHT22;491;53.480;10.174;2022-07-22T12:33:35;23.00;99.90
1005;DHT22;491;53.480;10.174;2022-07-22T12:36:06;22.60;99.90
1005;DHT22;491;53.480;10.174;2022-07-22T12:38:32;22.40;99.90
1005;DHT22;491;53.480;10.174;2022-07-22T12:41:20;22.50;99.90
1005;DHT22;491;53.480;10.174;2022-07-22T12:43:46;22.30;99.90
1005;DHT22;491;53.480;10.174;2022-07-22T12:46:11;22.20;99.90
1005;DHT22;491;53.480;10.174;2022-07-22T12:48:37;22.30;99.90
1005;DHT22;491;53.480;10.174;2022-07-22T12:51:02;22.20;99.90
1005;DHT22;491;53.480;10.174;2022-07-22T12:53:28;22.80;99.90
1005;DHT22;491;53.480;10.174;2022-07-22T12:55:58;22.70;99.90
1005;DHT22;491;53.480;10.174;2022-07-22T12:58:26;22.50;99.90
1005;DHT22;491;53.480;10.174;2022-07-22T13:00:54;22.30;99.90
1005;DHT22;491;53.480;10.174;2022-07-22T13:03:21;22.40;99.90
1005;DHT22;491;53.480;10.174;2022-07-22T13:05:49;22.40;99.90
1005;DHT22;491;53.480;10.174;2022-07-22T13:08:15;22.20;99.90
1005;DHT22;491;53.480;10.174;2022-07-22T13:10:41;22.50;99.90
1005;DHT22;491;53.480;10.174;2022-07-22T13:13:06;22.50;99.90
1005;DHT22;491;53.480;10.174;2022-07-22T13:15:32;22.60;99.90
1005;DHT22;491;53.480;10.174;2022-07-22T13:17:57;22.50;99.90
1005;DHT22;491;53.480;10.174;2022-07-22T13:20:23;22.30;99.90
1005;DHT22;491;53.480;10.174;2022-07-22T13:22:48;22.00;99.90
1005;DHT22;491;53.480;10.174;2022-07-22T13:25:14;22.10;99.90
1005;DHT22;491;53.480;10.174;2022-07-22T13:27:40;22.20;99.90
1005;DHT22;491;53.480;10.174;2022-07-22T13:30:06;22.70;99.90
1005;DHT22;491;53.480;10.174;2022-07-22T13:32:32;22.90;94.50
1005;DHT22;491;53.480;10.174;2022-07-22T13:34:58;23.20;99.90
1005;DHT22;491;53.480;10.174;2022-07-22T13:37:23;23.20;95.20
1005;DHT22;491;53.480;10.174;2022-07-22T13:39:49;23.40;86.10
1005;DHT22;491;53.480;10.174;2022-07-22T13:42:16;23.10;47.50
1005;DHT22;491;53.480;10.174;2022-07-22T13:44:47;22.90;55.30
1005;DHT22;491;53.480;10.174;2022-07-22T13:47:13;23.00;93.70
1005;DHT22;491;53.480;10.174;2022-07-22T13:49:39;23.00;92.10
1005;DHT22;491;53.480;10.174;2022-07-22T13:52:05;23.00;61.30
1005;DHT22;491;53.480;10.174;2022-07-22T13:54:31;22.70;67.90
1005;DHT22;491;53.480;10.174;2022-07-22T13:56:58;22.40;82.50
1005;DHT22;491;53.480;10.174;2022-07-22T13:59:24;22.10;99.90
1005;DHT22;491;53.480;10.174;2022-07-22T14:01:50;22.50;99.90
1005;DHT22;491;53.480;10.174;2022-07-22T14:04:15;22.50;99.90
1005;DHT22;491;53.480;10.174;2022-07-22T14:06:41;21.90;99.90
1005;DHT22;491;53.480;10.174;2022-07-22T14:09:07;21.50;99.90
1005;DHT22;491;53.480;10.174;2022-07-22T14:11:32;21.50;99.90
1005;DHT22;491;53.480;10.174;2022-07-22T14:13:58;21.90;99.90
1005;DHT22;491;53.480;10.174;2022-07-22T14:16:23;22.20;99.90
1005;DHT22;491;53.480;10.174;2022-07-22T14:19:08;22.10;95.80
1005;DHT22;491;53.480;10.174;2022-07-22T14:21:35;22.10;99.90
1005;DHT22;491;53.480;10.174;2022-07-22T14:24:02;22.20;99.90
1005;DHT22;491;53.480;10.174;2022-07-22T14:26:29;22.10;99.90
1005;DHT22;491;53.480;10.174;2022-07-22T14:28:54;21.90;99.90
1005;DHT22;491;53.480;10.174;2022-07-22T14:31:20;21.90;99.90
1005;DHT22;491;53.480;10.174;2022-07-22T14:33:46;21.80;99.90
1005;DHT22;491;53.480;10.174;2022-07-22T14:36:11;22.00;99.90
1005;DHT22;491;53.480;10.174;2022-07-22T14:38:37;21.90;99.90
1005;DHT22;491;53.480;10.174;2022-07-22T14:41:03;21.80;99.90
1005;DHT22;491;53.480;10.174;2022-07-22T14:43:29;21.90;99.90
1005;DHT22;491;53.480;10.174;2022-07-22T14:45:54;21.70;99.90
1005;DHT22;491;53.480;10.174;2022-07-22T14:48:20;21.60;99.90
1005;DHT22;491;53.480;10.174;2022-07-22T14:50:45;21.40;99.90
1005;DHT22;491;53.480;10.174;2022-07-22T14:53:12;21.30;99.90
1005;DHT22;491;53.480;10.174;2022-07-22T14:55:38;21.30;99.90
1005;DHT22;491;53.480;10.174;2022-07-22T14:58:03;21.40;99.90
1005;DHT22;491;53.480;10.174;2022-07-22T15:00:29;21.10;99.90
1005;DHT22;491;53.480;10.174;2022-07-22T15:02:54;21.10;1.00
1005;DHT22;491;53.480;10.174;2022-07-22T15:05:20;21.30;99.90
1005;DHT22;491;53.480;10.174;2022-07-22T15:07:45;21.60;1.00
1005;DHT22;491;53.480;10.174;2022-07-22T15:10:11;21.80;99.90
1005;DHT22;491;53.480;10.174;2022-07-22T15:12:36;21.60;99.90
1005;DHT22;491;53.480;10.174;2022-07-22T15:15:02;21.50;99.90
1005;DHT22;491;53.480;10.174;2022-07-22T15:17:28;21.40;1.00
1005;DHT22;491;53.480;10.174;2022-07-22T15:19:53;21.40;99.90
1005;DHT22;491;53.480;10.174;2022-07-22T15:22:19;21.40;99.90
1005;DHT22;491;53.480;10.174;2022-07-22T15:24:45;21.40;99.90
1005;DHT22;491;53.480;10.174;2022-07-22T15:27:10;21.50;99.90
1005;DHT22;491;53.480;10.174;2022-07-22T15:29:36;21.60;99.90
1005;DHT22;491;53.480;10.174;2022-07-22T15:32:01;21.40;99.90
1005;DHT22;491;53.480;10.174;2022-07-22T15:34:31;21.50;99.90
1005;DHT22;491;53.480;10.174;2022-07-22T15:36:58;21.30;99.90
1005;DHT22;491;53.480;10.174;2022-07-22T15:39:23;21.10;99.90
1005;DHT22;491;53.480;10.174;2022-07-22T15:41:49;21.00;99.90
1005;DHT22;491;53.480;10.174;2022-07-22T15:44:14;21.00;1.00
1005;DHT22;491;53.480;10.174;2022-07-22T15:46:40;21.00;1.00
1005;DHT22;491;53.480;10.174;2022-07-22T15:49:06;21.00;99.90
1005;DHT22;491;53.480;10.174;2022-07-22T15:51:31;21.00;1.00
1005;DHT22;491;53.480;10.174;2022-07-22T15:53:57;20.90;99.90
1005;DHT22;491;53.480;10.174;2022-07-22T15:56:22;21.20;1.00
1005;DHT22;491;53.480;10.174;2022-07-22T15:58:48;21.50;99.90
1005;DHT22;491;53.480;10.174;2022-07-22T16:01:32;21.30;99.90
1005;DHT22;491;53.480;10.174;2022-07-22T16:03:57;21.10;99.90
1005;DHT22;491;53.480;10.174;2022-07-22T16:06:23;20.90;99.90
1005;DHT22;491;53.480;10.174;2022-07-22T16:08:48;20.90;99.90
1005;DHT22;491;53.480;10.174;2022-07-22T16:11:14;20.60;99.90
1005;DHT22;491;53.480;10.174;2022-07-22T16:13:40;20.60;99.90
1005;DHT22;491;53.480;10.174;2022-07-22T16:16:06;20.70;99.90
1005;DHT22;491;53.480;10.174;2022-07-22T16:18:31;20.80;1.00
1005;DHT22;491;53.480;10.174;2022-07-22T16:20:57;20.90;1.00